createdAt,value
2019-01-21T00:01:27.065Z,-5.50
2019-01-21T00:03:56.305Z,-5.50
2019-01-21T00:06:25.407Z,-5.60
2019-01-21T00:08:54.513Z,-5.60
2019-01-21T00:11:23.623Z,-5.60
2019-01-21T00:13:52.725Z,-5.60
2019-01-21T00:16:21.855Z,-5.60
2019-01-21T00:18:50.969Z,-5.60
2019-01-21T00:21:20.113Z,-5.60
2019-01-21T00:23:49.199Z,-5.60
2019-01-21T00:26:19.345Z,-5.60
2019-01-21T00:28:48.459Z,-5.60
2019-01-21T00:31:17.580Z,-5.60
2019-01-21T00:33:46.705Z,-5.60
2019-01-21T00:36:15.807Z,-5.60
2019-01-21T00:38:45.023Z,-5.60
2019-01-21T00:41:14.837Z,-5.70
2019-01-21T00:43:43.983Z,-5.70
2019-01-21T00:46:13.163Z,-5.70
2019-01-21T00:48:42.297Z,-5.70
2019-01-21T00:51:11.404Z,-5.70
2019-01-21T00:53:40.529Z,-5.80
2019-01-21T00:56:09.643Z,-5.80
2019-01-21T00:58:38.773Z,-5.80
2019-01-21T01:01:07.861Z,-5.80
2019-01-21T01:03:37.043Z,-5.80
2019-01-21T01:06:06.138Z,-5.70
2019-01-21T01:08:36.559Z,-5.80
2019-01-21T01:11:05.855Z,-5.80
2019-01-21T01:13:34.965Z,-5.80
2019-01-21T01:16:04.537Z,-5.80
2019-01-21T01:18:33.638Z,-5.80
2019-01-21T01:21:02.762Z,-5.80
2019-01-21T01:23:31.886Z,-5.80
2019-01-21T01:26:01.010Z,-5.90
2019-01-21T01:28:30.119Z,-5.90
2019-01-21T01:30:59.244Z,-5.90
2019-01-21T01:33:28.357Z,-5.90
2019-01-21T01:35:57.486Z,-6.00
2019-01-21T01:38:26.614Z,-6.00
2019-01-21T01:40:56.977Z,-6.00
2019-01-21T01:43:26.231Z,-6.00
2019-01-21T01:45:55.345Z,-6.00
2019-01-21T01:48:24.471Z,-6.10
2019-01-21T01:50:54.913Z,-6.10
2019-01-21T01:53:24.139Z,-6.10
2019-01-21T01:55:53.462Z,-6.10
2019-01-21T01:58:22.622Z,-6.20
2019-01-21T02:00:51.713Z,-6.20
2019-01-21T02:03:20.906Z,-6.20
2019-01-21T02:05:50.435Z,-6.30
2019-01-21T02:08:19.543Z,-6.30
2019-01-21T02:10:49.086Z,-6.30
2019-01-21T02:13:18.204Z,-6.30
2019-01-21T02:15:47.327Z,-6.30
2019-01-21T02:18:16.436Z,-6.40
2019-01-21T02:20:48.454Z,-6.40
2019-01-21T02:23:18.440Z,-6.40
2019-01-21T02:25:57.775Z,-6.40
2019-01-21T02:29:11.800Z,-6.40
2019-01-21T02:32:27.404Z,-6.50
2019-01-21T02:35:24.315Z,-6.50
2019-01-21T02:38:36.635Z,-6.50
2019-01-21T02:41:41.755Z,-6.50
2019-01-21T02:44:39.666Z,-6.60
2019-01-21T02:47:20.244Z,-6.50
2019-01-21T02:50:36.421Z,-6.50
2019-01-21T02:53:54.570Z,-6.60
2019-01-21T02:57:01.182Z,-6.60
2019-01-21T02:59:46.228Z,-6.70
2019-01-21T03:02:59.358Z,-6.70
2019-01-21T03:06:21.936Z,-6.70
2019-01-21T03:09:47.378Z,-6.70
2019-01-21T03:12:54.620Z,-6.70
2019-01-21T03:16:17.150Z,-6.70
2019-01-21T03:19:30.258Z,-6.70
2019-01-21T03:22:33.326Z,-6.80
2019-01-21T03:25:24.908Z,-6.80
2019-01-21T03:28:20.130Z,-6.70
2019-01-21T03:31:32.352Z,-6.70
2019-01-21T03:34:30.043Z,-6.80
2019-01-21T03:37:23.109Z,-6.80
2019-01-21T03:40:25.469Z,-6.80
2019-01-21T03:43:27.578Z,-6.80
2019-01-21T03:46:46.588Z,-6.80
2019-01-21T03:49:29.517Z,-6.80
2019-01-21T03:52:30.130Z,-6.90
2019-01-21T03:55:15.403Z,-6.90
2019-01-21T03:58:14.784Z,-7.00
2019-01-21T04:01:25.447Z,-7.00
2019-01-21T04:04:24.226Z,-7.00
2019-01-21T04:07:27.982Z,-7.00
2019-01-21T04:10:34.309Z,-7.00
2019-01-21T04:13:45.559Z,-6.90
2019-01-21T04:17:17.442Z,-6.90
2019-01-21T04:20:04.458Z,-6.90
2019-01-21T04:22:52.013Z,-7.00
2019-01-21T04:25:43.215Z,-7.00
2019-01-21T04:28:34.017Z,-7.00
2019-01-21T04:31:40.443Z,-7.10
2019-01-21T04:34:35.539Z,-7.10
2019-01-21T04:37:57.901Z,-7.10
2019-01-21T04:40:51.711Z,-7.10
2019-01-21T04:43:51.727Z,-7.10
2019-01-21T04:47:19.930Z,-7.10
2019-01-21T04:50:24.816Z,-7.20
2019-01-21T04:53:35.617Z,-7.20
2019-01-21T04:56:30.413Z,-7.20
2019-01-21T04:59:45.304Z,-7.20
2019-01-21T05:03:04.417Z,-7.20
2019-01-21T05:05:46.083Z,-7.10
2019-01-21T05:08:58.074Z,-7.20
2019-01-21T05:12:00.886Z,-7.20
2019-01-21T05:14:58.624Z,-7.20
2019-01-21T05:18:16.142Z,-7.20
2019-01-21T05:21:32.331Z,-7.20
2019-01-21T05:24:57.698Z,-7.20
2019-01-21T05:28:03.651Z,-7.20
2019-01-21T05:31:32.789Z,-7.20
2019-01-21T05:34:47.677Z,-7.20
2019-01-21T05:38:12.126Z,-7.20
2019-01-21T05:41:09.554Z,-7.20
2019-01-21T05:44:00.109Z,-7.10
2019-01-21T05:47:00.077Z,-7.10
2019-01-21T05:50:09.345Z,-6.90
2019-01-21T05:53:04.804Z,-6.90
2019-01-21T05:56:16.994Z,-6.80
2019-01-21T05:59:20.462Z,-6.90
2019-01-21T06:02:31.998Z,-6.90
2019-01-21T06:05:26.364Z,-6.90
2019-01-21T06:08:29.341Z,-7.00
2019-01-21T06:11:27.070Z,-7.00
2019-01-21T06:14:40.642Z,-7.10
2019-01-21T06:17:24.027Z,-7.10
2019-01-21T06:21:01.682Z,-7.00
2019-01-21T06:23:51.569Z,-6.90
2019-01-21T06:27:01.104Z,-6.90
2019-01-21T06:29:43.340Z,-6.90
2019-01-21T06:33:01.659Z,-6.90
2019-01-21T06:35:48.829Z,-6.90
2019-01-21T06:39:04.289Z,-6.90
2019-01-21T06:42:05.929Z,-6.80
2019-01-21T06:45:11.171Z,-6.80
2019-01-21T06:48:18.662Z,-6.80
2019-01-21T06:51:21.215Z,-6.80
2019-01-21T06:54:30.192Z,-6.80
2019-01-21T06:57:50.359Z,-6.80
2019-01-21T07:00:55.287Z,-6.70
2019-01-21T07:04:02.858Z,-6.70
2019-01-21T07:07:07.397Z,-6.60
2019-01-21T07:10:26.523Z,-6.50
2019-01-21T07:13:21.842Z,-6.40
2019-01-21T07:16:38.280Z,-6.30
2019-01-21T07:19:51.525Z,-6.30
2019-01-21T07:22:45.867Z,-6.30
2019-01-21T07:25:58.673Z,-6.30
2019-01-21T07:28:53.987Z,-6.20
2019-01-21T07:31:51.023Z,-6.10
2019-01-21T07:34:57.119Z,-6.10
2019-01-21T07:38:19.342Z,-6.00
2019-01-21T07:41:22.478Z,-5.90
2019-01-21T07:44:20.403Z,-5.80
2019-01-21T07:47:39.513Z,-5.70
2019-01-21T07:50:41.011Z,-5.50
2019-01-21T07:54:06.400Z,-5.40
2019-01-21T07:57:17.788Z,-5.40
2019-01-21T08:00:10.651Z,-5.30
2019-01-21T08:03:06.638Z,-5.20
2019-01-21T08:05:53.618Z,-5.10
2019-01-21T08:08:41.985Z,-5.00
2019-01-21T08:11:53.365Z,-5.00
2019-01-21T08:14:49.649Z,-4.80
2019-01-21T08:18:08.619Z,-4.70
2019-01-21T08:21:06.138Z,-4.60
2019-01-21T08:24:21.148Z,-4.50
2019-01-21T08:27:01.548Z,-4.50
2019-01-21T08:30:02.455Z,-4.50
2019-01-21T08:32:58.986Z,-4.50
2019-01-21T08:36:03.882Z,-4.40
2019-01-21T08:39:05.947Z,-4.40
2019-01-21T08:42:06.073Z,-4.30
2019-01-21T08:45:15.621Z,-4.20
2019-01-21T08:48:40.757Z,-4.10
2019-01-21T08:51:35.807Z,-3.90
2019-01-21T08:54:33.193Z,-3.70
2019-01-21T08:57:14.007Z,-3.70
2019-01-21T09:00:21.351Z,-3.70
2019-01-21T09:03:22.735Z,-3.70
2019-01-21T09:06:15.317Z,-3.70
2019-01-21T09:09:06.938Z,-3.80
2019-01-21T09:11:56.931Z,-3.60
2019-01-21T09:15:02.961Z,-3.60
2019-01-21T09:18:16.943Z,-3.40
2019-01-21T09:21:12.218Z,-3.40
2019-01-21T09:24:06.903Z,-3.30
2019-01-21T09:27:16.217Z,-3.30
2019-01-21T09:30:13.053Z,-3.20
2019-01-21T09:33:14.389Z,-3.30
2019-01-21T09:36:26.467Z,-3.20
2019-01-21T09:39:42.944Z,-3.00
2019-01-21T09:42:37.015Z,-2.90
2019-01-21T09:45:31.589Z,-3.00
2019-01-21T09:47:59.147Z,-3.10
2019-01-21T09:50:28.603Z,-3.20
2019-01-21T09:52:58.309Z,-3.30
2019-01-21T09:55:27.949Z,-3.30
2019-01-21T09:58:07.432Z,-3.40
2019-01-21T10:00:36.553Z,-3.50
2019-01-21T10:03:06.231Z,-3.50
2019-01-21T10:05:35.421Z,-3.60
2019-01-21T10:08:40.153Z,-3.60
2019-01-21T10:12:01.122Z,-3.60
2019-01-21T10:15:07.439Z,-3.60
2019-01-21T10:18:02.054Z,-3.50
2019-01-21T10:20:47.771Z,-3.40
2019-01-21T10:23:43.384Z,-3.40
2019-01-21T10:26:42.026Z,-3.30
2019-01-21T10:29:38.024Z,-3.30
2019-01-21T10:33:03.509Z,-3.20
2019-01-21T10:36:13.462Z,-3.20
2019-01-21T10:39:10.704Z,-3.20
2019-01-21T10:42:15.730Z,-3.30
2019-01-21T10:45:18.168Z,-3.30
2019-01-21T10:48:05.134Z,-3.30
2019-01-21T10:51:02.958Z,-3.20
2019-01-21T10:54:12.998Z,-3.10
2019-01-21T10:56:57.380Z,-3.10
2019-01-21T10:59:53.870Z,-3.00
2019-01-21T11:02:46.824Z,-2.90
2019-01-21T11:05:50.054Z,-2.80
2019-01-21T11:08:39.478Z,-2.70
2019-01-21T11:11:54.075Z,-2.70
2019-01-21T11:15:03.948Z,-2.60
2019-01-21T11:18:16.975Z,-2.50
2019-01-21T11:21:21.940Z,-2.50
2019-01-21T11:24:38.438Z,-2.50
2019-01-21T11:27:52.517Z,-2.40
2019-01-21T11:31:12.237Z,-2.30
2019-01-21T11:34:25.624Z,-2.20
2019-01-21T11:37:31.880Z,-2.10
2019-01-21T11:40:48.528Z,-2.10
2019-01-21T11:43:49.752Z,-2.00
2019-01-21T11:46:54.885Z,-2.00
2019-01-21T11:49:47.812Z,-2.00
2019-01-21T11:52:46.399Z,-1.90
2019-01-21T11:56:11.723Z,-1.90
2019-01-21T11:59:05.778Z,-1.80
2019-01-21T12:02:12.227Z,-1.70
2019-01-21T12:05:18.510Z,-1.70
2019-01-21T12:08:30.680Z,-1.60
2019-01-21T12:11:39.217Z,-1.50
2019-01-21T12:14:54.722Z,-1.50
2019-01-21T12:18:11.496Z,-1.50
2019-01-21T12:21:12.608Z,-1.40
2019-01-21T12:24:20.941Z,-1.40
2019-01-21T12:27:33.514Z,-1.40
2019-01-21T12:30:24.748Z,-1.30
2019-01-21T12:33:40.778Z,-1.30
2019-01-21T12:36:39.886Z,-1.20
2019-01-21T12:40:17.480Z,-1.20
2019-01-21T12:43:21.350Z,-1.10
2019-01-21T12:46:40.605Z,-1.10
2019-01-21T12:49:24.503Z,-1.00
2019-01-21T12:52:39.539Z,-0.90
2019-01-21T12:55:36.422Z,-0.90
2019-01-21T12:58:39.634Z,-0.80
2019-01-21T13:01:38.138Z,-0.80
2019-01-21T13:04:38.684Z,-0.80
2019-01-21T13:07:49.414Z,-0.80
2019-01-21T13:10:55.858Z,-0.80
2019-01-21T13:14:15.534Z,-0.80
2019-01-21T13:17:15.670Z,-0.80
2019-01-21T13:20:10.769Z,-0.80
2019-01-21T13:23:27.538Z,-0.80
2019-01-21T13:26:31.962Z,-0.70
2019-01-21T13:29:45.010Z,-0.70
2019-01-21T13:33:09.413Z,-0.60
2019-01-21T13:35:54.687Z,-0.60
2019-01-21T13:38:52.458Z,-0.60
2019-01-21T13:41:55.202Z,-0.60
2019-01-21T13:44:59.918Z,-0.60
2019-01-21T13:48:14.366Z,-0.70
2019-01-21T13:51:34.151Z,-0.60
2019-01-21T13:54:56.619Z,-0.60
2019-01-21T13:58:15.462Z,-0.70
2019-01-21T14:01:30.741Z,-0.60
2019-01-21T14:04:43.913Z,-0.60
2019-01-21T14:07:56.206Z,-0.60
2019-01-21T14:10:48.193Z,-0.70
2019-01-21T14:13:26.497Z,-0.70
2019-01-21T14:16:26.790Z,-0.70
2019-01-21T14:19:06.526Z,-0.70
2019-01-21T14:22:21.967Z,-0.60
2019-01-21T14:25:28.400Z,-0.70
2019-01-21T14:28:44.439Z,-0.60
2019-01-21T14:31:42.509Z,-0.60
2019-01-21T14:34:27.064Z,-0.70
2019-01-21T14:37:31.872Z,-0.70
2019-01-21T14:40:35.719Z,-0.70
2019-01-21T14:43:50.961Z,-0.70
2019-01-21T14:46:47.895Z,-0.80
2019-01-21T14:49:48.325Z,-0.80
2019-01-21T14:52:53.594Z,-0.80
2019-01-21T14:55:34.964Z,-0.90
2019-01-21T14:58:34.130Z,-0.90
2019-01-21T15:01:41.163Z,-1.00
2019-01-21T15:04:53.642Z,-1.00
2019-01-21T15:07:57.863Z,-1.00
2019-01-21T15:11:22.512Z,-1.10
2019-01-21T15:14:04.137Z,-1.10
2019-01-21T15:16:45.030Z,-1.20
2019-01-21T15:19:37.327Z,-1.20
2019-01-21T15:22:38.779Z,-1.30
2019-01-21T15:25:35.471Z,-1.30
2019-01-21T15:28:53.874Z,-1.40
2019-01-21T15:31:57.794Z,-1.40
2019-01-21T15:34:52.584Z,-1.50
2019-01-21T15:38:05.003Z,-1.50
2019-01-21T15:41:14.171Z,-1.60
2019-01-21T15:44:11.413Z,-1.60
2019-01-21T15:47:25.610Z,-1.70
2019-01-21T15:50:28.711Z,-1.80
2019-01-21T15:53:27.655Z,-1.80
2019-01-21T15:56:31.461Z,-1.90
2019-01-21T15:59:15.159Z,-1.90
2019-01-21T16:02:13.448Z,-2.00
2019-01-21T16:04:56.894Z,-2.10
2019-01-21T16:07:52.189Z,-2.20
2019-01-21T16:11:04.065Z,-2.20
2019-01-21T16:13:44.425Z,-2.30
2019-01-21T16:16:47.603Z,-2.40
2019-01-21T16:19:49.951Z,-2.40
2019-01-21T16:23:03.471Z,-2.50
2019-01-21T16:26:19.944Z,-2.50
2019-01-21T16:29:10.222Z,-2.60
2019-01-21T16:32:09.288Z,-2.70
2019-01-21T16:35:05.515Z,-2.70
2019-01-21T16:38:11.074Z,-2.80
2019-01-21T16:41:16.093Z,-2.80
2019-01-21T16:43:45.340Z,-2.90
2019-01-21T16:46:14.497Z,-2.90
2019-01-21T16:48:43.648Z,-2.90
2019-01-21T16:51:19.983Z,-3.00
2019-01-21T16:53:44.611Z,-3.00
2019-01-21T16:56:14.697Z,-3.10
2019-01-21T16:58:43.850Z,-3.10
2019-01-21T17:01:12.949Z,-3.20
2019-01-21T17:03:42.137Z,-3.20
2019-01-21T17:06:11.430Z,-3.30
2019-01-21T17:08:40.666Z,-3.30
2019-01-21T17:11:09.788Z,-3.30
2019-01-21T17:13:38.956Z,-3.30
2019-01-21T17:16:08.066Z,-3.30
2019-01-21T17:18:37.239Z,-3.30
2019-01-21T17:21:06.499Z,-3.40
2019-01-21T17:23:35.698Z,-3.40
2019-01-21T17:26:04.920Z,-3.40
2019-01-21T17:28:34.032Z,-3.40
2019-01-21T17:31:03.562Z,-3.50
2019-01-21T17:33:32.759Z,-3.50
2019-01-21T17:36:01.900Z,-3.50
2019-01-21T17:38:31.101Z,-3.50
2019-01-21T17:41:00.330Z,-3.50
2019-01-21T17:43:29.449Z,-3.50
2019-01-21T17:45:58.584Z,-3.60
2019-01-21T17:48:27.725Z,-3.60
2019-01-21T17:50:56.938Z,-3.60
2019-01-21T17:53:26.078Z,-3.70
2019-01-21T17:55:55.580Z,-3.70
2019-01-21T17:58:24.770Z,-3.80
2019-01-21T18:00:53.994Z,-3.80
2019-01-21T18:03:23.176Z,-3.80
2019-01-21T18:05:52.518Z,-3.80
2019-01-21T18:08:22.352Z,-3.80
2019-01-21T18:10:51.556Z,-3.80
2019-01-21T18:13:20.816Z,-3.80
2019-01-21T18:15:50.015Z,-3.80
2019-01-21T18:18:19.248Z,-3.90
2019-01-21T18:20:48.842Z,-3.90
2019-01-21T18:23:18.038Z,-3.90
2019-01-21T18:25:47.271Z,-4.00
2019-01-21T18:28:16.562Z,-4.00
2019-01-21T18:30:45.898Z,-4.00
2019-01-21T18:33:16.296Z,-4.00
2019-01-21T18:35:45.578Z,-4.00
2019-01-21T18:38:15.321Z,-4.00
2019-01-21T18:40:44.638Z,-4.00
2019-01-21T18:43:13.856Z,-4.00
2019-01-21T18:45:44.481Z,-3.90
2019-01-21T18:48:14.355Z,-3.90
2019-01-21T18:50:43.740Z,-3.90
2019-01-21T18:53:13.022Z,-3.90
2019-01-21T18:55:42.617Z,-3.90
2019-01-21T18:58:11.930Z,-3.90
2019-01-21T19:00:41.228Z,-3.90
2019-01-21T19:03:10.533Z,-3.90
2019-01-21T19:05:39.836Z,-3.90
2019-01-21T19:08:09.141Z,-3.90
2019-01-21T19:10:38.783Z,-3.90
2019-01-21T19:13:10.389Z,-3.90
2019-01-21T19:15:39.661Z,-3.90
2019-01-21T19:18:09.275Z,-3.90
2019-01-21T19:20:38.576Z,-3.90
2019-01-21T19:23:08.767Z,-3.90
2019-01-21T19:25:38.050Z,-3.90
2019-01-21T19:28:07.436Z,-3.90
2019-01-21T19:30:37.051Z,-4.00
2019-01-21T19:33:06.457Z,-4.00
2019-01-21T19:35:37.560Z,-4.10
2019-01-21T19:38:07.481Z,-4.10
2019-01-21T19:40:37.811Z,-4.10
2019-01-21T19:43:08.462Z,-4.20
2019-01-21T19:45:37.879Z,-4.20
2019-01-21T19:48:08.010Z,-4.20
2019-01-21T19:50:37.782Z,-4.30
2019-01-21T19:53:07.430Z,-4.30
2019-01-21T19:55:41.450Z,-4.30
2019-01-21T19:58:12.226Z,-4.40
2019-01-21T20:00:43.686Z,-4.40
2019-01-21T20:03:12.974Z,-4.50
2019-01-21T20:05:42.300Z,-4.50
2019-01-21T20:08:12.212Z,-4.50
2019-01-21T20:10:43.806Z,-4.60
2019-01-21T20:13:13.987Z,-4.60
2019-01-21T20:15:43.596Z,-4.70
2019-01-21T20:18:14.180Z,-4.70
2019-01-21T20:20:44.361Z,-4.70
2019-01-21T20:23:13.987Z,-4.80
2019-01-21T20:25:44.644Z,-4.70
2019-01-21T20:28:15.367Z,-4.80
2019-01-21T20:30:45.780Z,-4.80
2019-01-21T20:33:15.961Z,-4.80
2019-01-21T20:35:45.324Z,-4.80
2019-01-21T20:38:14.680Z,-4.80
2019-01-21T20:40:46.066Z,-4.80
2019-01-21T20:43:16.227Z,-4.80
2019-01-21T20:45:45.836Z,-4.80
2019-01-21T20:48:15.134Z,-4.80
2019-01-21T20:50:44.355Z,-4.80
2019-01-21T20:53:14.263Z,-4.90
2019-01-21T20:55:44.346Z,-4.90
2019-01-21T20:58:16.779Z,-4.90
2019-01-21T21:00:50.644Z,-4.90
2019-01-21T21:03:20.029Z,-5.00
2019-01-21T21:05:51.438Z,-5.00
2019-01-21T21:08:24.022Z,-5.00
2019-01-21T21:10:53.774Z,-5.10
2019-01-21T21:13:22.992Z,-5.10
2019-01-21T21:15:52.338Z,-5.10
2019-01-21T21:18:21.639Z,-5.20
2019-01-21T21:20:50.940Z,-5.20
2019-01-21T21:23:20.257Z,-5.10
2019-01-21T21:25:49.607Z,-5.10
2019-01-21T21:28:21.887Z,-5.10
2019-01-21T21:30:51.550Z,-5.10
2019-01-21T21:33:20.929Z,-5.10
2019-01-21T21:35:50.599Z,-5.10
2019-01-21T21:38:19.940Z,-5.10
2019-01-21T21:40:49.144Z,-5.20
2019-01-21T21:43:18.816Z,-5.20
2019-01-21T21:45:48.348Z,-5.20
2019-01-21T21:48:17.600Z,-5.20
2019-01-21T21:50:46.894Z,-5.20
2019-01-21T21:53:16.130Z,-5.20
2019-01-21T21:55:45.583Z,-5.20
2019-01-21T21:58:14.816Z,-5.30
2019-01-21T22:00:44.051Z,-5.30
2019-01-21T22:03:13.379Z,-5.30
2019-01-21T22:05:42.546Z,-5.30
2019-01-21T22:08:11.709Z,-5.30
2019-01-21T22:10:40.934Z,-5.30
2019-01-21T22:13:10.071Z,-5.30
2019-01-21T22:15:39.314Z,-5.30
2019-01-21T22:18:08.557Z,-5.30
2019-01-21T22:20:37.783Z,-5.30
2019-01-21T22:23:07.050Z,-5.30
2019-01-21T22:25:36.834Z,-5.30
2019-01-21T22:28:05.954Z,-5.30
2019-01-21T22:30:35.422Z,-5.30
2019-01-21T22:33:04.632Z,-5.40
2019-01-21T22:35:34.010Z,-5.40
2019-01-21T22:38:04.385Z,-5.40
2019-01-21T22:40:33.494Z,-5.40
2019-01-21T22:43:02.755Z,-5.50
2019-01-21T22:45:31.888Z,-5.50
2019-01-21T22:48:01.257Z,-5.60
2019-01-21T22:50:30.351Z,-5.60
2019-01-21T22:52:59.431Z,-5.70
2019-01-21T22:55:28.557Z,-5.70
2019-01-21T22:57:59.215Z,-5.70
2019-01-21T23:00:43.791Z,-5.80
2019-01-21T23:03:15.254Z,-5.80
2019-01-21T23:05:44.882Z,-5.80
2019-01-21T23:08:14.088Z,-5.80
2019-01-21T23:10:43.208Z,-5.90
2019-01-21T23:13:12.325Z,-5.90
2019-01-21T23:15:41.428Z,-5.90
2019-01-21T23:18:10.707Z,-5.80
2019-01-21T23:20:39.808Z,-5.90
2019-01-21T23:23:09.287Z,-5.90
2019-01-21T23:25:38.467Z,-5.90
2019-01-21T23:28:09.643Z,-5.90
2019-01-21T23:30:38.808Z,-5.90
2019-01-21T23:33:07.987Z,-5.90
2019-01-21T23:35:37.461Z,-6.00
2019-01-21T23:38:06.564Z,-5.90
2019-01-21T23:40:35.674Z,-5.90
2019-01-21T23:43:04.747Z,-5.90
2019-01-21T23:45:33.925Z,-5.90
2019-01-21T23:48:03.010Z,-5.90
2019-01-21T23:50:32.073Z,-5.90
2019-01-21T23:53:01.139Z,-5.90
2019-01-21T23:55:30.608Z,-5.90
2019-01-21T23:57:59.701Z,-5.90
